Time,TemperatureF,DewpointF,PressureIn,WindDirection,WindDirectionDegrees,WindSpeedMPH,WindSpeedGustMPH,Humidity,HourlyPrecipIn,Conditions,Clouds,dailyrainin,SoftwareType,DateUTC
2013-02-19 00:02:00,22.0,0.0,30.04,WSW,238,4.0,8.0,37,0.00,,,0.00,,2013-02-19 05:02:00,
2013-02-19 00:13:00,22.0,0.0,30.04,WSW,238,4.0,8.0,37,0.00,,,0.00,,2013-02-19 05:13:00,
2013-02-19 00:22:00,21.0,-1.0,30.03,SW,229,4.0,7.0,37,0.00,,,0.00,,2013-02-19 05:22:00,
2013-02-19 00:32:00,21.0,-1.0,30.04,WNW,282,4.0,8.0,37,0.00,,,0.00,,2013-02-19 05:32:00,
2013-02-19 00:43:00,21.0,-1.0,30.04,WNW,282,4.0,8.0,37,0.00,,,0.00,,2013-02-19 05:43:00,
2013-02-19 00:52:00,21.0,-1.0,30.04,West,279,4.0,7.0,37,0.00,,,0.00,,2013-02-19 05:52:00,
2013-02-19 01:02:00,21.0,-1.0,30.04,WNW,284,3.0,8.0,37,0.00,,,0.00,,2013-02-19 06:02:00,
2013-02-19 01:12:00,21.0,-1.0,30.04,WNW,284,3.0,8.0,37,0.00,,,0.00,,2013-02-19 06:12:00,
2013-02-19 01:22:00,21.0,-2.0,30.04,West,268,4.0,8.0,36,0.00,,,0.00,,2013-02-19 06:22:00,
2013-02-19 01:32:00,21.0,-1.0,30.05,West,276,3.0,7.0,37,0.00,,,0.00,,2013-02-19 06:32:00,
2013-02-19 01:42:00,21.0,-1.0,30.05,West,276,3.0,7.0,37,0.00,,,0.00,,2013-02-19 06:42:00,
2013-02-19 01:53:00,21.0,-1.0,30.04,WSW,248,4.0,8.0,37,0.00,,,0.00,,2013-02-19 06:53:00,
2013-02-19 02:01:00,21.0,-2.0,30.04,WSW,246,4.0,7.0,36,0.00,,,0.00,,2013-02-19 07:01:00,
2013-02-19 02:12:00,21.0,-2.0,30.04,WSW,246,4.0,7.0,36,0.00,,,0.00,,2013-02-19 07:12:00,
2013-02-19 02:22:00,21.0,-1.0,30.05,WSW,243,2.0,8.0,37,0.00,,,0.00,,2013-02-19 07:22:00,
2013-02-19 02:32:00,20.0,-2.0,30.06,WSW,252,2.0,4.0,37,0.00,,,0.00,,2013-02-19 07:32:00,
2013-02-19 02:42:00,20.0,-2.0,30.06,WSW,252,2.0,4.0,37,0.00,,,0.00,,2013-02-19 07:42:00,
2013-02-19 02:52:00,20.0,-2.0,30.06,West,276,2.0,5.0,37,0.00,,,0.00,,2013-02-19 07:52:00,
2013-02-19 03:02:00,20.0,-1.0,30.06,WNW,286,2.0,4.0,39,0.00,,,0.00,,2013-02-19 08:02:00,
2013-02-19 03:11:00,20.0,-1.0,30.06,WNW,286,2.0,4.0,39,0.00,,,0.00,,2013-02-19 08:11:00,
2013-02-19 03:22:00,20.0,0.0,30.06,WNW,282,2.0,4.0,40,0.00,,,0.00,,2013-02-19 08:22:00,
2013-02-19 03:32:00,20.0,-1.0,30.06,West,274,2.0,4.0,39,0.00,,,0.00,,2013-02-19 08:32:00,
2013-02-19 03:42:00,20.0,-1.0,30.06,West,274,2.0,4.0,39,0.00,,,0.00,,2013-02-19 08:42:00,
2013-02-19 03:52:00,21.0,0.0,30.07,West,277,5.0,9.0,39,0.00,,,0.00,,2013-02-19 08:52:00,
2013-02-19 04:02:00,22.0,0.0,30.07,West,279,5.0,10.0,38,0.00,,,0.00,,2013-02-19 09:02:00,
2013-02-19 04:11:00,22.0,0.0,30.07,West,279,5.0,10.0,38,0.00,,,0.00,,2013-02-19 09:11:00,
2013-02-19 04:22:00,23.0,0.0,30.07,WNW,286,3.0,11.0,36,0.00,,,0.00,,2013-02-19 09:22:00,
2013-02-19 04:32:00,23.0,0.0,30.08,NW,305,2.0,10.0,36,0.00,,,0.00,,2013-02-19 09:32:00,
2013-02-19 04:42:00,23.0,0.0,30.08,NW,305,2.0,10.0,36,0.00,,,0.00,,2013-02-19 09:42:00,
2013-02-19 04:53:00,24.0,2.0,30.08,NW,305,2.0,4.0,37,0.00,,,0.00,,2013-02-19 09:53:00,
2013-02-19 05:02:00,24.0,1.0,30.08,West,281,2.0,6.0,36,0.00,,,0.00,,2013-02-19 10:02:00,
2013-02-19 05:11:00,24.0,1.0,30.08,West,281,2.0,6.0,36,0.00,,,0.00,,2013-02-19 10:11:00,
2013-02-19 05:22:00,24.0,0.0,30.08,WNW,286,1.0,4.0,35,0.00,,,0.00,,2013-02-19 10:22:00,
2013-02-19 05:32:00,25.0,1.0,30.08,West,280,2.0,5.0,35,0.00,,,0.00,,2013-02-19 10:32:00,
2013-02-19 05:42:00,25.0,1.0,30.08,West,280,2.0,5.0,35,0.00,,,0.00,,2013-02-19 10:42:00,
2013-02-19 05:52:00,25.0,1.0,30.08,WNW,293,0.0,3.0,35,0.00,,,0.00,,2013-02-19 10:52:00,
2013-02-19 06:01:00,25.0,2.0,30.08,West,274,0.0,3.0,36,0.00,,,0.00,,2013-02-19 11:01:00,
2013-02-19 06:11:00,25.0,2.0,30.08,West,274,0.0,3.0,36,0.00,,,0.00,,2013-02-19 11:11:00,
2013-02-19 06:22:00,25.0,3.0,30.07,West,274,0.0,1.0,38,0.00,,,0.00,,2013-02-19 11:22:00,
2013-02-19 06:32:00,25.0,1.0,30.08,WNW,296,0.0,0.0,34,0.00,,,0.00,,2013-02-19 11:32:00,
2013-02-19 06:42:00,25.0,1.0,30.08,WNW,296,0.0,0.0,34,0.00,,,0.00,,2013-02-19 11:42:00,
2013-02-19 06:52:00,25.0,4.0,30.07,WNW,296,0.0,0.0,40,0.00,,,0.00,,2013-02-19 11:52:00,
2013-02-19 07:02:00,24.0,6.0,30.07,WNW,296,0.0,0.0,45,0.00,,,0.00,,2013-02-19 12:02:00,
2013-02-19 07:12:00,24.0,6.0,30.07,WNW,296,0.0,0.0,45,0.00,,,0.00,,2013-02-19 12:12:00,
2013-02-19 07:22:00,23.0,5.0,30.07,WNW,296,0.0,0.0,46,0.00,,,0.00,,2013-02-19 12:22:00,
2013-02-19 07:32:00,23.0,8.0,30.07,WNW,296,0.0,0.0,52,0.00,,,0.00,,2013-02-19 12:32:00,
2013-02-19 07:42:00,23.0,8.0,30.07,WNW,296,0.0,0.0,52,0.00,,,0.00,,2013-02-19 12:42:00,
2013-02-19 07:52:00,24.0,6.0,30.06,WNW,296,0.0,0.0,45,0.00,,,0.00,,2013-02-19 12:52:00,
2013-02-19 08:02:00,26.0,2.0,30.06,NNW,348,1.0,3.0,35,0.00,,,0.00,,2013-02-19 13:02:00,
2013-02-19 08:11:00,26.0,2.0,30.06,NNW,348,1.0,3.0,35,0.00,,,0.00,,2013-02-19 13:11:00,
2013-02-19 08:22:00,27.0,4.0,30.06,NNW,348,0.0,1.0,36,0.00,,,0.00,,2013-02-19 13:22:00,
2013-02-19 08:32:00,29.0,5.0,30.08,SW,226,1.0,4.0,36,0.00,,,0.00,,2013-02-19 13:32:00,
2013-02-19 08:42:00,29.0,5.0,30.08,SW,226,1.0,4.0,36,0.00,,,0.00,,2013-02-19 13:42:00,
2013-02-19 08:52:00,30.0,6.0,30.07,SW,226,0.0,1.0,35,0.00,,,0.00,,2013-02-19 13:52:00,
2013-02-19 09:02:00,32.0,7.0,30.07,SW,235,1.0,3.0,34,0.00,,,0.00,,2013-02-19 14:02:00,
2013-02-19 09:12:00,32.0,7.0,30.07,SW,235,1.0,3.0,34,0.00,,,0.00,,2013-02-19 14:12:00,
2013-02-19 09:22:00,32.0,8.0,30.06,SSW,205,1.0,4.0,36,0.00,,,0.00,,2013-02-19 14:22:00,
2013-02-19 09:33:00,33.0,8.0,30.06,SW,225,1.0,3.0,34,0.00,,,0.00,,2013-02-19 14:33:00,
2013-02-19 09:42:00,33.0,8.0,30.06,SW,225,1.0,3.0,34,0.00,,,0.00,,2013-02-19 14:42:00,
2013-02-19 09:52:00,34.0,6.0,30.06,South,178,3.0,5.0,30,0.00,,,0.00,,2013-02-19 14:52:00,
2013-02-19 10:02:00,34.0,5.0,30.06,SW,233,1.0,4.0,29,0.00,,,0.00,,2013-02-19 15:02:00,
2013-02-19 10:11:00,34.0,5.0,30.06,SW,233,1.0,4.0,29,0.00,,,0.00,,2013-02-19 15:11:00,
2013-02-19 10:22:00,33.0,6.0,30.06,SW,233,1.0,4.0,32,0.00,,,0.00,,2013-02-19 15:22:00,
2013-02-19 10:32:00,33.0,6.0,30.06,SW,233,2.0,3.0,31,0.00,,,0.00,,2013-02-19 15:32:00,
2013-02-19 10:42:00,33.0,6.0,30.06,SW,233,2.0,3.0,31,0.00,,,0.00,,2013-02-19 15:42:00,
2013-02-19 10:52:00,33.0,10.0,30.06,South,188,1.0,5.0,37,0.00,,,0.00,,2013-02-19 15:52:00,
2013-02-19 11:02:00,33.0,11.0,30.06,SSW,194,1.0,2.0,40,0.00,,,0.00,,2013-02-19 16:02:00,
2013-02-19 11:11:00,33.0,11.0,30.06,SSW,194,1.0,2.0,40,0.00,,,0.00,,2013-02-19 16:11:00,
2013-02-19 11:22:00,34.0,12.0,30.06,SSE,158,1.0,3.0,39,0.00,,,0.00,,2013-02-19 16:22:00,
2013-02-19 11:32:00,36.0,15.0,30.04,South,176,2.0,5.0,41,0.00,,,0.00,,2013-02-19 16:32:00,
2013-02-19 11:42:00,36.0,15.0,30.04,South,176,2.0,5.0,41,0.00,,,0.00,,2013-02-19 16:42:00,
2013-02-19 11:52:00,36.0,15.0,30.03,SE,137,3.0,6.0,42,0.00,,,0.00,,2013-02-19 16:52:00,
2013-02-19 12:01:00,36.0,16.0,30.03,South,191,2.0,6.0,44,0.00,,,0.00,,2013-02-19 17:01:00,
2013-02-19 12:11:00,36.0,16.0,30.03,South,191,2.0,6.0,44,0.00,,,0.00,,2013-02-19 17:11:00,
2013-02-19 12:21:00,37.0,18.0,30.03,SSW,194,3.0,7.0,46,0.00,,,0.00,,2013-02-19 17:21:00,
2013-02-19 12:32:00,37.0,20.0,30.02,SSE,159,4.0,7.0,49,0.00,,,0.00,,2013-02-19 17:32:00,
2013-02-19 12:42:00,37.0,20.0,30.02,SSE,159,4.0,7.0,49,0.00,,,0.00,,2013-02-19 17:42:00,
2013-02-19 12:52:00,37.0,21.0,30.00,SE,136,5.0,8.0,52,0.00,,,0.00,,2013-02-19 17:52:00,
2013-02-19 13:02:00,36.0,20.0,29.99,SSW,207,4.0,8.0,51,0.00,,,0.00,,2013-02-19 18:02:00,
2013-02-19 13:11:00,36.0,20.0,29.99,SSW,207,4.0,8.0,51,0.00,,,0.00,,2013-02-19 18:11:00,
2013-02-19 13:21:00,37.0,21.0,29.98,SW,218,2.0,7.0,51,0.00,,,0.00,,2013-02-19 18:21:00,
2013-02-19 13:32:00,38.0,22.0,29.98,SSW,196,3.0,11.0,51,0.00,,,0.00,,2013-02-19 18:32:00,
2013-02-19 13:42:00,38.0,22.0,29.98,SSW,196,3.0,11.0,51,0.00,,,0.00,,2013-02-19 18:42:00,
2013-02-19 13:52:00,38.0,24.0,29.98,SE,132,3.0,7.0,57,0.00,,,0.00,,2013-02-19 18:52:00,
2013-02-19 14:01:00,38.0,25.0,29.97,SSW,205,2.0,9.0,59,0.00,,,0.00,,2013-02-19 19:01:00,
2013-02-19 14:11:00,38.0,25.0,29.97,SSW,205,2.0,9.0,59,0.00,,,0.00,,2013-02-19 19:11:00,
2013-02-19 14:22:00,39.0,25.0,29.96,SW,222,2.0,7.0,58,0.00,,,0.00,,2013-02-19 19:22:00,
2013-02-19 14:32:00,39.0,26.0,29.96,SSW,194,3.0,6.0,59,0.00,,,0.00,,2013-02-19 19:32:00,
2013-02-19 14:42:00,39.0,26.0,29.96,SSW,194,3.0,6.0,59,0.00,,,0.00,,2013-02-19 19:42:00,
2013-02-19 14:52:00,39.0,27.0,29.95,SSE,168,3.0,7.0,62,0.00,,,0.00,,2013-02-19 19:52:00,
2013-02-19 15:02:00,39.0,28.0,29.94,South,178,2.0,6.0,65,0.00,,,0.00,,2013-02-19 20:02:00,
2013-02-19 15:12:00,39.0,28.0,29.94,South,178,2.0,6.0,65,0.00,,,0.00,,2013-02-19 20:12:00,
2013-02-19 15:22:00,39.0,30.0,29.93,SSE,163,2.0,8.0,70,0.00,,,0.00,,2013-02-19 20:22:00,
2013-02-19 15:32:00,40.0,32.0,29.93,SE,140,5.0,8.0,72,0.00,,,0.00,,2013-02-19 20:32:00,
2013-02-19 15:42:00,40.0,32.0,29.93,SE,140,5.0,8.0,72,0.00,,,0.00,,2013-02-19 20:42:00,
2013-02-19 15:52:00,40.0,32.0,29.91,South,180,2.0,6.0,74,0.00,,,0.00,,2013-02-19 20:52:00,
2013-02-19 16:02:00,40.0,33.0,29.90,ESE,123,1.0,6.0,76,0.00,,,0.00,,2013-02-19 21:02:00,
2013-02-19 16:11:00,40.0,33.0,29.90,ESE,123,1.0,6.0,76,0.00,,,0.00,,2013-02-19 21:11:00,
2013-02-19 16:21:00,40.0,34.0,29.89,SE,139,3.0,5.0,80,0.00,,,0.00,,2013-02-19 21:21:00,
2013-02-19 16:32:00,41.0,36.0,29.87,SSE,149,4.0,7.0,81,0.00,,,0.00,,2013-02-19 21:32:00,
2013-02-19 16:42:00,41.0,36.0,29.87,SSE,149,4.0,7.0,81,0.00,,,0.00,,2013-02-19 21:42:00,
2013-02-19 16:52:00,41.0,36.0,29.86,SE,146,4.0,8.0,82,0.00,,,0.00,,2013-02-19 21:52:00,
2013-02-19 17:02:00,42.0,37.0,29.85,SSE,147,6.0,9.0,83,0.00,,,0.00,,2013-02-19 22:02:00,
2013-02-19 17:11:00,42.0,37.0,29.85,SSE,147,6.0,9.0,83,0.00,,,0.00,,2013-02-19 22:11:00,
2013-02-19 17:22:00,42.0,37.0,29.85,ESE,121,4.0,9.0,83,0.00,,,0.00,,2013-02-19 22:22:00,
2013-02-19 17:32:00,42.0,38.0,29.84,ESE,119,3.0,14.0,84,0.00,,,0.00,,2013-02-19 22:32:00,
2013-02-19 17:42:00,42.0,38.0,29.84,ESE,119,3.0,14.0,84,0.00,,,0.00,,2013-02-19 22:42:00,
2013-02-19 17:52:00,42.0,38.0,29.83,South,175,5.0,13.0,85,0.00,,,0.00,,2013-02-19 22:52:00,
2013-02-19 18:01:00,42.0,38.0,29.82,SSE,159,4.0,10.0,84,0.00,,,0.00,,2013-02-19 23:01:00,
2013-02-19 18:11:00,42.0,38.0,29.82,SSE,159,4.0,10.0,84,0.00,,,0.00,,2013-02-19 23:11:00,
2013-02-19 18:21:00,43.0,39.0,29.81,SSW,202,7.0,14.0,85,0.00,,,0.00,,2013-02-19 23:21:00,
2013-02-19 18:32:00,43.0,39.0,29.80,SSW,194,6.0,16.0,86,0.00,,,0.00,,2013-02-19 23:32:00,
2013-02-19 18:42:00,43.0,39.0,29.80,SSW,194,6.0,16.0,86,0.00,,,0.00,,2013-02-19 23:42:00,
2013-02-19 18:52:00,43.0,39.0,29.79,SSE,165,5.0,14.0,86,0.00,,,0.00,,2013-02-19 23:52:00,
2013-02-19 19:01:00,43.0,40.0,29.78,SE,126,7.0,16.0,89,0.00,,,0.00,,2013-02-20 00:01:00,
2013-02-19 19:11:00,43.0,40.0,29.78,SE,126,7.0,16.0,89,0.00,,,0.00,,2013-02-20 00:11:00,
2013-02-19 19:22:00,43.0,40.0,29.77,SE,138,6.0,18.0,89,0.00,,,0.00,,2013-02-20 00:22:00,
2013-02-19 19:32:00,43.0,40.0,29.76,South,182,7.0,15.0,90,0.00,,,0.00,,2013-02-20 00:32:00,
2013-02-19 19:42:00,43.0,40.0,29.76,South,182,7.0,15.0,90,0.00,,,0.00,,2013-02-20 00:42:00,
2013-02-19 19:52:00,43.0,40.0,29.75,South,171,4.0,14.0,90,0.00,,,0.00,,2013-02-20 00:52:00,
2013-02-19 20:02:00,43.0,41.0,29.73,SW,232,5.0,11.0,91,0.01,,,0.01,,2013-02-20 01:02:00,
2013-02-19 20:11:00,43.0,41.0,29.73,SW,232,5.0,11.0,91,0.01,,,0.01,,2013-02-20 01:11:00,
2013-02-19 20:22:00,43.0,41.0,29.72,South,182,4.0,13.0,92,0.01,,,0.01,,2013-02-20 01:22:00,
2013-02-19 20:32:00,43.0,41.0,29.72,SSE,154,4.0,13.0,93,0.04,,,0.04,,2013-02-20 01:32:00,
2013-02-19 20:42:00,43.0,41.0,29.72,SSE,154,4.0,13.0,93,0.04,,,0.04,,2013-02-20 01:42:00,
2013-02-19 20:52:00,43.0,41.0,29.71,ESE,122,4.0,9.0,94,0.07,,,0.07,,2013-02-20 01:52:00,
2013-02-19 21:02:00,43.0,41.0,29.70,SSE,158,2.0,9.0,94,0.08,,,0.09,,2013-02-20 02:02:00,
2013-02-19 21:11:00,43.0,41.0,29.70,SSE,158,2.0,9.0,94,0.08,,,0.09,,2013-02-20 02:11:00,
2013-02-19 21:22:00,43.0,41.0,29.69,SSE,162,5.0,11.0,94,0.12,,,0.13,,2013-02-20 02:22:00,
2013-02-19 21:32:00,43.0,41.0,29.67,SSE,153,5.0,12.0,94,0.15,,,0.19,,2013-02-20 02:32:00,
2013-02-19 21:42:00,43.0,41.0,29.67,SSE,153,5.0,12.0,94,0.15,,,0.19,,2013-02-20 02:42:00,
2013-02-19 21:52:00,43.0,42.0,29.65,ESE,114,7.0,13.0,95,0.15,,,0.22,,2013-02-20 02:52:00,
2013-02-19 22:02:00,43.0,42.0,29.63,SE,146,4.0,9.0,95,0.16,,,0.25,,2013-02-20 03:02:00,
2013-02-19 22:12:00,43.0,42.0,29.63,SE,146,4.0,9.0,95,0.16,,,0.25,,2013-02-20 03:12:00,
2013-02-19 22:22:00,43.0,42.0,29.59,ESE,120,4.0,9.0,95,0.15,,,0.28,,2013-02-20 03:22:00,
2013-02-19 22:32:00,43.0,42.0,29.59,SSE,165,6.0,10.0,95,0.09,,,0.28,,2013-02-20 03:32:00,
2013-02-19 22:42:00,43.0,42.0,29.59,SSE,165,6.0,10.0,95,0.09,,,0.28,,2013-02-20 03:42:00,
2013-02-19 22:52:00,43.0,42.0,29.59,South,171,5.0,13.0,95,0.08,,,0.30,,2013-02-20 03:52:00,
2013-02-19 23:01:00,44.0,43.0,29.56,SE,146,5.0,12.0,95,0.08,,,0.33,,2013-02-20 04:01:00,
2013-02-19 23:11:00,44.0,43.0,29.56,SE,146,5.0,12.0,95,0.08,,,0.33,,2013-02-20 04:11:00,
2013-02-19 23:21:00,44.0,43.0,29.57,SE,144,7.0,17.0,95,0.06,,,0.34,,2013-02-20 04:21:00,
2013-02-19 23:32:00,44.0,43.0,29.55,SSE,147,5.0,18.0,95,0.07,,,0.35,,2013-02-20 04:32:00,
2013-02-19 23:42:00,44.0,43.0,29.55,SSE,147,5.0,18.0,95,0.07,,,0.35,,2013-02-20 04:42:00,
2013-02-19 23:52:00,44.0,43.0,29.55,SSE,165,6.0,17.0,95,0.06,,,0.36,,2013-02-20 04:52:00,